KPGA/PGA METAR and TAF weather

Enter ICAO airport designator
Station Type Date Time Source
KPGA METAR 2019/04/20 18:53 UTC NOAA

KPGA 201853Z AUTO 35007KT 10SM CLR 21/M04 A2986 RMK AO2 SLP058 T02111044 TSNO


Station Type Date Time Source
KPGA Decoded METAR 2019/04/20 18:53 UTC NOAA

PAGE MUNICIPAL AIRPORT, AZ, United States (KPGA) 36-56N 111-27W 1307M
Apr 20, 2019 - 02:53 PM EDT / 2019.04.20 1853 UTC
Wind: from the N (350 degrees) at 8 MPH (7 KT):0
Visibility: 10 mile(s):0
Sky conditions: clear
Temperature: 70.0 F (21.1 C)
Dew Point: 24.1 F (-4.4 C)
Relative Humidity: 17%
Pressure (altimeter): 29.86 in. Hg (1011 hPa)
ob: KPGA 201853Z AUTO 35007KT 10SM CLR 21/M04 A2986 RMK AO2 SLP058 T02111044 TSNO
cycle: 19

Station Type Date Time Source
KPGA TAF 2019/04/20 18:30 UTC NOAA

TAF KPGA 201727Z 2018/2118 VRB05KT P6SM SCT150
FM202000 25011KT P6SM FEW120
FM210500 20010G20KT P6SM SCT120 BKN200
FM211000 23008KT P6SM FEW120

Example: see airport list